createdAt,value
2023-05-22T00:02:04.566Z,27.77
2023-05-22T00:04:32.224Z,26.10
2023-05-22T00:06:59.522Z,28.33
2023-05-22T00:09:26.756Z,28.85
2023-05-22T00:11:53.652Z,37.92
2023-05-22T00:14:20.844Z,30.17
2023-05-22T00:16:48.410Z,30.70
2023-05-22T00:19:18.282Z,29.38
2023-05-22T00:21:46.871Z,30.48
2023-05-22T00:24:14.124Z,26.67
2023-05-22T00:26:41.279Z,28.80
2023-05-22T00:29:09.357Z,26.38
2023-05-22T00:31:36.769Z,26.63
2023-05-22T00:34:04.139Z,28.63
2023-05-22T00:36:32.269Z,32.60
2023-05-22T00:39:00.615Z,30.25
2023-05-22T00:41:28.110Z,28.98
2023-05-22T00:43:55.427Z,29.58
2023-05-22T00:46:23.082Z,29.10
2023-05-22T00:48:52.830Z,29.63
2023-05-22T00:51:24.557Z,32.10
2023-05-22T00:53:55.394Z,31.25
2023-05-22T00:56:22.759Z,28.48
2023-05-22T00:58:50.087Z,30.92
2023-05-22T01:01:17.791Z,30.13
2023-05-22T01:03:46.121Z,33.33
2023-05-22T01:06:18.593Z,31.17
2023-05-22T01:08:46.092Z,33.83
2023-05-22T01:11:25.429Z,32.45
2023-05-22T01:13:57.926Z,31.17
2023-05-22T01:16:32.307Z,34.30
2023-05-22T01:18:59.777Z,36.35
2023-05-22T01:21:47.252Z,28.05
2023-05-22T01:24:44.901Z,31.80
2023-05-22T01:27:14.866Z,34.47
2023-05-22T01:29:50.572Z,33.33
2023-05-22T01:32:22.114Z,31.88
2023-05-22T01:34:55.268Z,29.23
2023-05-22T01:37:23.636Z,35.55
2023-05-22T01:39:52.840Z,31.70
2023-05-22T01:42:20.215Z,37.08
2023-05-22T01:44:49.289Z,33.65
2023-05-22T01:47:16.832Z,33.75
2023-05-22T01:49:44.130Z,34.22
2023-05-22T01:52:18.671Z,34.28
2023-05-22T01:54:52.743Z,29.90
2023-05-22T01:57:26.842Z,36.95
2023-05-22T01:59:59.135Z,36.35
2023-05-22T02:02:27.201Z,32.30
2023-05-22T02:04:59.440Z,38.83
2023-05-22T02:07:27.039Z,40.45
2023-05-22T02:09:56.647Z,36.97
2023-05-22T02:12:25.482Z,39.00
2023-05-22T02:14:53.000Z,38.22
2023-05-22T02:17:22.059Z,35.60
2023-05-22T02:19:49.298Z,31.98
2023-05-22T02:22:16.560Z,35.83
2023-05-22T02:24:44.913Z,36.25
2023-05-22T02:27:12.434Z,35.70
2023-05-22T02:29:39.997Z,36.78
2023-05-22T02:32:07.436Z,37.92
2023-05-22T02:34:35.045Z,38.33
2023-05-22T02:37:05.505Z,39.67
2023-05-22T02:39:32.867Z,36.97
2023-05-22T02:42:00.783Z,38.75
2023-05-22T02:44:31.004Z,37.50
2023-05-22T02:46:58.291Z,40.38
2023-05-22T02:49:25.676Z,46.50
2023-05-22T02:51:53.526Z,43.08
2023-05-22T02:54:20.927Z,40.97
2023-05-22T02:56:48.098Z,39.80
2023-05-22T02:59:16.848Z,39.33
2023-05-22T03:01:44.557Z,37.03
2023-05-22T03:04:13.147Z,40.47
2023-05-22T03:09:09.345Z,37.95
2023-05-22T03:11:36.663Z,38.50
2023-05-22T03:14:03.955Z,40.28
2023-05-22T03:16:33.218Z,37.65
2023-05-22T03:19:13.329Z,49.35
2023-05-22T03:21:41.558Z,47.08
2023-05-22T03:24:08.748Z,34.67
2023-05-22T03:26:36.016Z,34.78
2023-05-22T03:29:05.732Z,37.60
2023-05-22T03:31:34.307Z,36.47
2023-05-22T03:34:13.800Z,32.75
2023-05-22T03:36:45.293Z,33.05
2023-05-22T03:44:17.913Z,31.05
2023-05-22T03:46:45.555Z,32.63
2023-05-22T03:49:16.041Z,32.58
2023-05-22T03:51:43.199Z,32.40
2023-05-22T03:54:10.429Z,33.25
2023-05-22T03:56:38.003Z,32.20
2023-05-22T03:59:05.326Z,31.45
2023-05-22T04:01:32.483Z,33.58
2023-05-22T04:03:59.757Z,33.22
2023-05-22T04:06:27.149Z,33.45
2023-05-22T04:08:54.356Z,36.20
2023-05-22T04:11:22.312Z,34.58
2023-05-22T04:13:51.181Z,33.70
2023-05-22T04:16:18.782Z,35.50
2023-05-22T04:18:46.228Z,33.20
2023-05-22T04:21:13.102Z,31.75
2023-05-22T04:23:43.352Z,32.30
2023-05-22T04:26:10.667Z,34.42
2023-05-22T04:28:38.113Z,37.55
2023-05-22T04:31:06.798Z,34.67
2023-05-22T04:33:38.879Z,38.13
2023-05-22T04:36:07.267Z,33.13
2023-05-22T04:38:37.473Z,33.42
2023-05-22T04:41:04.769Z,36.67
2023-05-22T04:43:32.371Z,33.17
2023-05-22T04:45:59.617Z,32.95
2023-05-22T04:48:28.347Z,36.15
2023-05-22T04:50:57.510Z,31.10
2023-05-22T04:53:24.858Z,35.33
2023-05-22T04:55:52.092Z,34.28
2023-05-22T04:58:19.329Z,33.78
2023-05-22T05:00:46.621Z,33.13
2023-05-22T05:03:13.880Z,31.98
2023-05-22T05:05:42.349Z,31.30
2023-05-22T05:08:09.699Z,33.75
2023-05-22T05:10:37.146Z,31.48
2023-05-22T05:13:04.541Z,31.80
2023-05-22T05:15:36.340Z,31.27
2023-05-22T05:18:03.650Z,28.20
2023-05-22T05:20:30.959Z,29.77
2023-05-22T05:22:58.234Z,30.08
2023-05-22T05:25:25.472Z,31.35
2023-05-22T05:27:52.703Z,29.58
2023-05-22T05:30:21.937Z,31.80
2023-05-22T05:33:09.378Z,26.45
2023-05-22T05:35:46.924Z,30.83
2023-05-22T05:38:14.116Z,27.60
2023-05-22T05:40:47.025Z,26.25
2023-05-22T05:43:15.324Z,29.23
2023-05-22T05:45:43.736Z,29.42
2023-05-22T05:48:12.143Z,27.17
2023-05-22T05:50:44.694Z,30.05
2023-05-22T05:53:12.616Z,30.70
2023-05-22T05:55:43.935Z,29.42
2023-05-22T05:58:11.625Z,29.33
2023-05-22T06:00:51.965Z,29.58
2023-05-22T06:03:19.431Z,27.20
2023-05-22T06:06:00.338Z,25.83
2023-05-22T06:08:47.105Z,28.15
2023-05-22T06:11:15.421Z,24.77
2023-05-22T06:13:52.043Z,24.10
2023-05-22T06:16:19.272Z,22.77
2023-05-22T06:18:46.757Z,24.27
2023-05-22T06:21:14.040Z,26.30
2023-05-22T06:23:40.943Z,22.00
2023-05-22T06:26:09.019Z,21.45
2023-05-22T06:28:39.579Z,24.02
2023-05-22T06:31:10.340Z,20.42
2023-05-22T06:33:40.853Z,22.38
2023-05-22T06:36:09.095Z,21.85
2023-05-22T06:38:37.981Z,20.55
2023-05-22T06:41:07.911Z,19.98
2023-05-22T06:43:35.215Z,22.20
2023-05-22T06:46:12.153Z,17.95
2023-05-22T06:48:46.120Z,18.30
2023-05-22T06:51:24.292Z,20.20
2023-05-22T06:53:54.986Z,18.52
2023-05-22T06:56:25.609Z,18.40
2023-05-22T06:59:15.466Z,17.08
2023-05-22T07:02:05.865Z,18.65
2023-05-22T07:04:58.880Z,19.80
2023-05-22T07:07:45.643Z,18.33
2023-05-22T07:10:14.950Z,18.30
2023-05-22T07:15:12.179Z,16.25
2023-05-22T07:17:42.042Z,19.55
2023-05-22T07:20:15.939Z,18.33
2023-05-22T07:22:48.537Z,18.75
2023-05-22T07:25:15.494Z,17.52
2023-05-22T07:27:42.964Z,17.58
2023-05-22T07:30:10.441Z,17.75
2023-05-22T07:32:39.692Z,19.02
2023-05-22T07:35:10.894Z,18.15
2023-05-22T07:37:38.737Z,17.75
2023-05-22T07:40:07.398Z,17.02
2023-05-22T07:42:34.480Z,19.60
2023-05-22T07:45:03.555Z,17.33
2023-05-22T07:47:30.834Z,16.88
2023-05-22T07:49:57.649Z,17.38
2023-05-22T07:52:24.561Z,17.85
2023-05-22T07:55:07.857Z,15.18
2023-05-22T07:57:36.736Z,16.83
2023-05-22T08:00:14.504Z,15.27
2023-05-22T08:02:41.713Z,16.42
2023-05-22T08:05:09.155Z,16.45
2023-05-22T08:07:38.765Z,17.75
2023-05-22T08:10:14.474Z,16.25
2023-05-22T08:12:41.483Z,16.95
2023-05-22T08:15:08.993Z,14.90
2023-05-22T08:17:36.054Z,16.60
2023-05-22T08:20:03.552Z,16.77
2023-05-22T08:22:34.366Z,17.08
2023-05-22T08:25:02.015Z,17.38
2023-05-22T08:27:28.846Z,15.13
2023-05-22T08:29:58.505Z,16.73
2023-05-22T08:32:25.442Z,17.30
2023-05-22T08:34:52.243Z,17.58
2023-05-22T08:37:19.232Z,16.05
2023-05-22T08:39:46.032Z,19.52
2023-05-22T08:42:13.115Z,17.35
2023-05-22T08:44:42.119Z,17.67
2023-05-22T08:49:41.007Z,17.98
2023-05-22T08:52:14.596Z,18.23
2023-05-22T08:54:43.377Z,18.50
2023-05-22T08:57:11.377Z,17.77
2023-05-22T08:59:41.129Z,17.98
2023-05-22T09:02:09.744Z,17.25
2023-05-22T09:04:37.291Z,19.10
2023-05-22T09:07:05.649Z,19.60
2023-05-22T09:09:37.144Z,18.73
2023-05-22T09:12:06.829Z,20.92
2023-05-22T09:14:42.728Z,21.20
2023-05-22T09:17:12.126Z,18.70
2023-05-22T09:19:42.851Z,18.85
2023-05-22T09:22:09.733Z,17.70
2023-05-22T09:24:44.667Z,17.45
2023-05-22T09:27:12.179Z,20.08
2023-05-22T09:29:51.188Z,20.15
2023-05-22T09:32:18.736Z,21.25
2023-05-22T09:34:46.967Z,21.08
2023-05-22T09:37:17.423Z,22.10
2023-05-22T09:39:46.197Z,20.20
2023-05-22T09:42:15.818Z,21.20
2023-05-22T09:44:44.325Z,21.63
2023-05-22T09:47:11.613Z,21.90
2023-05-22T09:49:43.134Z,21.15
2023-05-22T09:52:12.482Z,20.35
2023-05-22T09:54:51.487Z,18.65
2023-05-22T09:57:20.248Z,18.83
2023-05-22T09:59:58.028Z,22.67
2023-05-22T10:02:28.211Z,19.55
2023-05-22T10:04:55.360Z,20.15
2023-05-22T10:07:24.616Z,20.98
2023-05-22T10:09:56.890Z,20.08
2023-05-22T10:12:24.543Z,20.38
2023-05-22T10:14:54.040Z,19.75
2023-05-22T10:17:21.986Z,22.13
2023-05-22T10:19:49.637Z,15.23
2023-05-22T10:22:20.882Z,16.75
2023-05-22T10:24:48.852Z,17.27
2023-05-22T10:27:15.754Z,15.68
2023-05-22T10:29:52.999Z,18.27
2023-05-22T10:32:44.491Z,20.42
2023-05-22T10:35:27.613Z,15.75
2023-05-22T10:38:03.557Z,13.90
2023-05-22T10:40:33.540Z,13.90
2023-05-22T10:43:01.993Z,13.93
2023-05-22T10:45:29.910Z,14.55
2023-05-22T10:48:13.237Z,15.13
2023-05-22T10:50:50.985Z,16.80
2023-05-22T10:53:33.457Z,14.48
2023-05-22T10:56:09.269Z,16.13
2023-05-22T10:58:38.965Z,15.70
2023-05-22T11:01:16.657Z,17.38
2023-05-22T11:04:12.445Z,17.65
2023-05-22T11:06:43.631Z,16.83
2023-05-22T11:09:21.810Z,15.70
2023-05-22T11:12:08.714Z,15.50
2023-05-22T11:14:36.729Z,16.08
2023-05-22T11:17:05.378Z,15.02
2023-05-22T11:19:32.401Z,16.08
2023-05-22T11:22:05.131Z,15.38
2023-05-22T11:24:35.127Z,16.63
2023-05-22T11:27:06.996Z,17.42
2023-05-22T11:29:34.301Z,14.80
2023-05-22T11:32:02.270Z,14.10
2023-05-22T11:34:30.309Z,14.13
2023-05-22T11:36:59.899Z,13.77
2023-05-22T11:39:27.365Z,15.93
2023-05-22T11:41:54.653Z,15.18
2023-05-22T11:44:21.868Z,12.98
2023-05-22T11:46:48.928Z,15.20
2023-05-22T11:49:17.356Z,13.88
2023-05-22T11:51:44.583Z,12.07
2023-05-22T11:54:14.157Z,11.55
2023-05-22T11:56:42.094Z,15.70
2023-05-22T11:59:09.476Z,16.38
2023-05-22T12:01:36.466Z,15.82
2023-05-22T12:04:04.730Z,16.92
2023-05-22T12:06:33.609Z,17.95
2023-05-22T12:09:04.075Z,18.20
2023-05-22T12:11:37.398Z,15.43
2023-05-22T12:14:04.611Z,18.27
2023-05-22T12:16:36.481Z,17.90
2023-05-22T12:19:11.017Z,18.52
2023-05-22T12:21:42.250Z,18.80
2023-05-22T12:24:11.059Z,19.95
2023-05-22T12:26:38.076Z,16.17
2023-05-22T12:29:05.259Z,15.82
2023-05-22T12:31:38.809Z,17.52
2023-05-22T12:34:07.893Z,16.90
2023-05-22T12:36:37.833Z,17.33
2023-05-22T12:39:12.385Z,15.52
2023-05-22T12:41:39.728Z,14.57
2023-05-22T12:44:07.147Z,13.82
2023-05-22T12:46:34.542Z,15.73
2023-05-22T12:49:02.160Z,12.52
2023-05-22T12:51:31.268Z,14.70
2023-05-22T12:54:04.697Z,17.25
2023-05-22T12:56:32.311Z,17.05
2023-05-22T12:59:14.545Z,15.25
2023-05-22T13:01:41.863Z,16.10
2023-05-22T13:04:08.698Z,15.77
2023-05-22T13:06:35.524Z,15.40
2023-05-22T13:09:02.306Z,12.77
2023-05-22T13:11:30.655Z,12.52
2023-05-22T13:13:57.454Z,12.88
2023-05-22T13:16:24.380Z,13.02
2023-05-22T13:18:51.650Z,14.02
2023-05-22T13:21:19.001Z,12.23
2023-05-22T13:23:45.941Z,11.18
2023-05-22T13:26:12.777Z,11.52
2023-05-22T13:28:39.577Z,12.98
2023-05-22T13:31:06.374Z,11.68
2023-05-22T13:33:33.437Z,11.77
2023-05-22T13:36:00.555Z,10.95
2023-05-22T13:38:27.626Z,12.13
2023-05-22T13:40:54.377Z,11.10
2023-05-22T13:43:21.190Z,10.88
2023-05-22T13:45:48.100Z,9.93
2023-05-22T13:48:17.798Z,12.48
2023-05-22T13:50:44.769Z,13.52
2023-05-22T13:53:11.847Z,12.55
2023-05-22T13:55:39.385Z,12.73
2023-05-22T13:58:07.019Z,10.93
2023-05-22T14:00:33.923Z,12.85
2023-05-22T14:03:01.382Z,12.75
2023-05-22T14:05:28.828Z,11.88
2023-05-22T14:07:56.807Z,11.48
2023-05-22T14:10:24.405Z,11.23
2023-05-22T14:12:54.822Z,13.68
2023-05-22T14:15:23.785Z,10.70
2023-05-22T14:17:51.426Z,11.93
2023-05-22T14:20:18.579Z,12.57
2023-05-22T14:22:56.416Z,17.80
2023-05-22T14:25:24.801Z,13.73
2023-05-22T14:27:52.162Z,13.77
2023-05-22T14:30:19.544Z,12.13
2023-05-22T14:32:47.078Z,14.35
2023-05-22T14:35:13.988Z,14.30
2023-05-22T14:37:40.841Z,13.65
2023-05-22T14:40:08.355Z,13.10
2023-05-22T14:42:36.156Z,13.00
2023-05-22T14:45:08.865Z,12.45
2023-05-22T14:47:40.464Z,12.20
2023-05-22T14:52:42.053Z,13.02
2023-05-22T14:55:12.118Z,11.50
2023-05-22T14:57:39.248Z,13.40
2023-05-22T15:00:06.844Z,12.27
2023-05-22T15:02:33.760Z,12.48
2023-05-22T15:05:00.746Z,10.98
2023-05-22T15:07:35.860Z,11.52
2023-05-22T15:10:08.117Z,11.82
2023-05-22T15:12:34.872Z,10.23
2023-05-22T15:15:01.815Z,12.98
2023-05-22T15:17:28.696Z,11.02
2023-05-22T15:19:55.935Z,14.48
2023-05-22T15:22:23.152Z,11.07
2023-05-22T15:25:06.594Z,10.90
2023-05-22T15:27:35.125Z,11.57
2023-05-22T15:30:02.775Z,10.45
2023-05-22T15:32:32.163Z,10.38
2023-05-22T15:34:59.392Z,10.60
2023-05-22T15:37:27.047Z,10.60
2023-05-22T15:39:54.530Z,11.10
2023-05-22T15:42:22.024Z,9.40
2023-05-22T15:44:49.412Z,9.35
2023-05-22T15:47:16.781Z,9.57
2023-05-22T15:49:44.015Z,9.90
2023-05-22T15:52:13.431Z,10.18
2023-05-22T15:54:43.123Z,8.90
2023-05-22T15:57:10.607Z,8.25
2023-05-22T15:59:37.459Z,9.15
2023-05-22T16:02:04.732Z,8.95
2023-05-22T16:04:33.444Z,8.80
2023-05-22T16:07:00.856Z,8.50
2023-05-22T16:09:28.088Z,10.60
2023-05-22T16:11:55.436Z,8.85
2023-05-22T16:14:22.646Z,8.68
2023-05-22T16:16:49.825Z,8.15
2023-05-22T16:19:17.728Z,9.00
2023-05-22T16:22:10.031Z,8.50
2023-05-22T16:24:37.411Z,8.05
2023-05-22T16:27:04.938Z,9.85
2023-05-22T16:29:32.633Z,7.80
2023-05-22T16:31:59.959Z,12.50
2023-05-22T16:34:27.492Z,9.35
2023-05-22T16:36:57.428Z,10.82
2023-05-22T16:39:26.862Z,10.65
2023-05-22T16:41:53.906Z,9.55
2023-05-22T16:44:21.429Z,7.95
2023-05-22T16:46:49.720Z,9.63
2023-05-22T16:49:17.033Z,8.90
2023-05-22T16:51:44.289Z,8.57
2023-05-22T16:54:11.113Z,7.53
2023-05-22T16:56:38.374Z,8.55
2023-05-22T16:59:05.231Z,9.68
2023-05-22T17:01:32.360Z,12.07
2023-05-22T17:03:59.724Z,8.98
2023-05-22T17:06:27.935Z,8.95
2023-05-22T17:08:55.992Z,9.27
2023-05-22T17:11:26.855Z,9.70
2023-05-22T17:13:54.023Z,10.23
2023-05-22T17:16:21.100Z,9.35
2023-05-22T17:18:48.027Z,10.15
2023-05-22T17:21:17.372Z,9.73
2023-05-22T17:23:44.770Z,9.52
2023-05-22T17:26:11.807Z,10.85
2023-05-22T17:28:38.638Z,11.15
2023-05-22T17:31:06.350Z,11.23
2023-05-22T17:33:33.859Z,10.55
2023-05-22T17:36:01.208Z,10.20
2023-05-22T17:38:27.984Z,10.02
2023-05-22T17:40:55.577Z,10.82
2023-05-22T17:45:52.937Z,11.75
2023-05-22T17:48:23.609Z,12.27
2023-05-22T17:50:52.217Z,12.10
2023-05-22T17:53:22.550Z,12.93
2023-05-22T17:55:52.290Z,12.13
2023-05-22T17:58:20.457Z,11.40
2023-05-22T18:00:49.051Z,12.07
2023-05-22T18:03:20.584Z,11.73
2023-05-22T18:05:51.254Z,10.20
2023-05-22T18:08:19.122Z,11.13
2023-05-22T18:10:46.370Z,13.32
2023-05-22T18:13:13.374Z,12.80
2023-05-22T18:15:40.904Z,12.27
2023-05-22T18:18:09.557Z,12.32
2023-05-22T18:20:37.806Z,12.43
2023-05-22T18:23:05.285Z,13.48
2023-05-22T18:25:32.452Z,12.18
2023-05-22T18:27:59.695Z,11.82
2023-05-22T18:30:28.606Z,12.65
2023-05-22T18:32:55.879Z,11.80
2023-05-22T18:35:22.771Z,12.55
2023-05-22T18:37:49.966Z,11.35
2023-05-22T18:40:17.266Z,11.65
2023-05-22T18:42:44.142Z,11.00
2023-05-22T18:45:14.536Z,12.95
2023-05-22T18:47:41.840Z,10.75
2023-05-22T18:50:09.214Z,12.48
2023-05-22T18:52:36.111Z,10.73
2023-05-22T18:55:03.390Z,13.52
2023-05-22T18:57:30.721Z,13.35
2023-05-22T19:00:00.778Z,10.98
2023-05-22T19:02:28.372Z,13.25
2023-05-22T19:04:55.725Z,12.15
2023-05-22T19:07:23.003Z,11.07
2023-05-22T19:09:50.381Z,10.70
2023-05-22T19:12:20.407Z,11.48
2023-05-22T19:14:49.094Z,12.48
2023-05-22T19:17:16.603Z,11.55
2023-05-22T19:19:51.142Z,11.63
2023-05-22T19:22:18.699Z,11.45
2023-05-22T19:24:46.880Z,12.00
2023-05-22T19:27:14.114Z,13.35
2023-05-22T19:29:41.386Z,12.57
2023-05-22T19:32:08.242Z,11.68
2023-05-22T19:34:35.669Z,13.88
2023-05-22T19:37:02.672Z,12.35
2023-05-22T19:39:29.872Z,11.90
2023-05-22T19:41:57.142Z,12.30
2023-05-22T19:44:24.048Z,13.90
2023-05-22T19:46:57.126Z,12.95
2023-05-22T19:49:24.425Z,13.57
2023-05-22T19:51:52.525Z,15.93
2023-05-22T19:54:21.375Z,15.50
2023-05-22T19:56:48.576Z,16.35
2023-05-22T19:59:15.863Z,19.10
2023-05-22T20:01:46.196Z,16.50
2023-05-22T20:04:16.085Z,18.15
2023-05-22T20:06:59.844Z,19.33
2023-05-22T20:09:27.221Z,20.48
2023-05-22T20:11:54.475Z,19.67
2023-05-22T20:14:21.548Z,18.80
2023-05-22T20:16:48.511Z,20.40
2023-05-22T20:19:17.671Z,17.85
2023-05-22T20:21:45.823Z,18.75
2023-05-22T20:24:19.172Z,19.48
2023-05-22T20:26:46.550Z,16.83
2023-05-22T20:29:16.826Z,18.90
2023-05-22T20:31:59.405Z,16.63
2023-05-22T20:34:28.873Z,15.15
2023-05-22T20:36:56.119Z,18.33
2023-05-22T20:39:23.517Z,15.90
2023-05-22T20:41:50.820Z,17.02
2023-05-22T20:44:23.447Z,13.48
2023-05-22T20:46:52.156Z,13.43
2023-05-22T20:49:25.223Z,11.45
2023-05-22T20:51:52.488Z,9.77
2023-05-22T20:54:19.810Z,10.75
2023-05-22T20:56:47.219Z,10.30
2023-05-22T20:59:16.687Z,9.55
2023-05-22T21:01:44.094Z,10.13
2023-05-22T21:04:11.442Z,9.90
2023-05-22T21:06:38.627Z,10.07
2023-05-22T21:09:06.158Z,10.18
2023-05-22T21:11:33.413Z,9.32
2023-05-22T21:14:00.894Z,9.80
2023-05-22T21:16:28.179Z,8.98
2023-05-22T21:18:55.715Z,11.00
2023-05-22T21:21:23.250Z,11.23
2023-05-22T21:23:51.202Z,10.88
2023-05-22T21:26:18.720Z,9.70
2023-05-22T21:28:45.792Z,10.38
2023-05-22T21:31:13.286Z,9.18
2023-05-22T21:33:40.593Z,9.20
2023-05-22T21:36:08.064Z,10.23
2023-05-22T21:38:35.271Z,10.25
2023-05-22T21:41:05.045Z,8.95
2023-05-22T21:43:33.746Z,10.00
2023-05-22T21:46:01.127Z,11.57
2023-05-22T21:48:28.001Z,10.65
2023-05-22T21:50:55.042Z,10.25
2023-05-22T21:53:22.461Z,11.80
2023-05-22T21:55:49.805Z,11.95
2023-05-22T21:58:16.766Z,12.00
2023-05-22T22:00:44.010Z,11.25
2023-05-22T22:03:12.259Z,11.77
2023-05-22T22:05:40.001Z,12.40
2023-05-22T22:08:06.811Z,11.05
2023-05-22T22:10:33.870Z,10.82
2023-05-22T22:13:01.941Z,11.82
2023-05-22T22:15:29.345Z,12.68
2023-05-22T22:17:59.598Z,12.65
2023-05-22T22:20:42.394Z,13.48
2023-05-22T22:23:10.378Z,12.93
2023-05-22T22:25:39.130Z,13.40
2023-05-22T22:28:07.463Z,13.30
2023-05-22T22:30:36.310Z,12.73
2023-05-22T22:33:03.729Z,14.15
2023-05-22T22:35:33.878Z,15.10
2023-05-22T22:38:01.201Z,11.60
2023-05-22T22:40:28.020Z,12.48
2023-05-22T22:42:54.882Z,14.13
2023-05-22T22:45:23.734Z,12.32
2023-05-22T22:47:52.754Z,13.40
2023-05-22T22:50:20.018Z,13.00
2023-05-22T22:52:47.254Z,14.15
2023-05-22T22:55:14.618Z,15.32
2023-05-22T22:57:46.530Z,14.50
2023-05-22T23:00:14.203Z,15.93
2023-05-22T23:02:41.466Z,13.52
2023-05-22T23:05:08.910Z,14.52
2023-05-22T23:07:36.384Z,14.80
2023-05-22T23:10:03.630Z,12.73
2023-05-22T23:12:35.075Z,15.20
2023-05-22T23:15:03.015Z,14.90
2023-05-22T23:17:30.313Z,17.05
2023-05-22T23:19:57.736Z,16.60
2023-05-22T23:22:25.037Z,16.13
2023-05-22T23:24:52.517Z,18.70
2023-05-22T23:27:22.406Z,16.00
2023-05-22T23:29:49.223Z,15.98
2023-05-22T23:32:16.478Z,17.05
2023-05-22T23:34:43.754Z,15.13
2023-05-22T23:37:11.008Z,15.68
2023-05-22T23:39:38.225Z,17.67
2023-05-22T23:42:05.628Z,16.35
2023-05-22T23:44:32.433Z,19.15
2023-05-22T23:46:59.740Z,17.63
2023-05-22T23:49:27.074Z,21.60
2023-05-22T23:51:54.549Z,16.85
2023-05-22T23:54:21.770Z,19.00
2023-05-22T23:56:49.137Z,18.52
2023-05-22T23:59:16.453Z,21.65
